Latest Weather Observations for Deniliquin

IDN60801

Issued at 8:03 pm EST Friday 12 July 2024 (issued every 10 minutes, with the page automatically refreshed every 10 minutes)

About weather observations | Map of weather stations | Latest weather observations for NSW | Other Formats
Station Details ID: 074258 Name: DENILIQUIN AIRPORT AWS Lat: -35.56 Lon: 144.95 Height: 94.0 m
Data from the previous 72 hours. | See also: Recent months at Deniliquin
Date/Time
EST
Temp
°C
App
Temp
°C
Dew
Point
°C
Rel
Hum
%
Delta-T
°C
Wind Press
QNH
hPa
Press
MSL
hPa
Rain since
9am
mm
Dir  Spd
km/h
Gust
km/h
Spd
kts
Gust
kts
12/07:30pm 7.6 4.6 6.2 91 0.6 W 11 13 6 7 1016.2 1016.3 0.8
12/07:00pm 7.7 5.1 6.2 90 0.7 W 9 13 5 7 1016.0 1016.1 0.8
12/06:30pm 9.0 6.4 7.6 91 0.7 WSW 11 15 6 8 1015.7 1015.8 0.8
12/06:00pm 9.5 6.4 7.4 87 1.0 WSW 13 15 7 8 1015.3 1015.5 0.8
12/05:30pm 11.3 9.0 9.0 86 1.2 WSW 11 13 6 7 1015.0 1015.2 0.8
12/05:00pm 12.1 9.9 9.3 83 1.4 SW 11 13 6 7 1014.9 1015.1 0.8
12/04:30pm 12.5 10.8 10.0 85 1.3 SW 9 13 5 7 1014.8 1015.0 0.8
12/04:00pm 12.5 10.4 9.9 84 1.3 SW 11 15 6 8 1014.7 1014.9 0.8
12/03:30pm 13.9 11.6 10.5 80 1.8 W 13 20 7 11 1014.5 1014.7 0.8
12/03:00pm 12.6 10.2 10.0 84 1.3 WSW 13 17 7 9 1014.4 1014.6 0.8
12/02:30pm 12.2 8.6 9.9 86 1.2 WSW 19 24 10 13 1014.4 1014.6 0.8
12/02:00pm 12.1 9.4 10.3 89 0.9 WSW 15 19 8 10 1014.4 1014.6 0.8
12/01:30pm 11.7 8.6 10.3 91 0.7 SW 17 20 9 11 1014.5 1014.7 0.8
12/01:00pm 11.6 8.1 10.2 91 0.7 WSW 19 22 10 12 1014.7 1014.9 0.8
12/12:30pm 11.8 9.1 10.2 90 0.8 W 15 19 8 10 1014.8 1015.0 0.8
12/12:00pm 11.5 9.6 10.4 93 0.6 W 11 17 6 9 1015.2 1015.4 0.8
12/11:30am 11.3 9.0 10.5 95 0.4 W 13 17 7 9 1015.6 1015.7 0.8
12/11:00am 10.7 9.1 10.2 97 0.3 NW 9 11 5 6 1015.9 1016.0 0.8
12/10:30am 10.3 8.6 10.0 98 0.2 N 9 13 5 7 1016.0 1016.1 0.2
12/10:00am 9.9 8.1 9.6 98 0.2 N 9 11 5 6 1015.8 1015.9 0.2
12/09:30am 9.8 8.0 9.5 98 0.2 N 9 13 5 7 1015.7 1015.8 0.0
12/09:00am 9.6 7.8 9.3 98 0.1 N 9 11 5 6 1015.6 1015.7 4.6
12/08:30am 9.4 7.5 9.1 98 0.1 N 9 11 5 6 1015.3 1015.5 4.4
12/08:00am 9.3 7.0 9.0 98 0.1 NNE 11 13 6 7 1015.0 1015.2 4.4
12/07:30am 9.2 7.2 8.7 97 0.2 NNE 9 13 5 7 1014.9 1015.1 4.4
12/07:00am 9.2 6.8 8.7 97 0.2 NNE 11 15 6 8 1014.9 1015.1 4.4
12/06:30am 9.3 7.3 8.8 97 0.2 NNE 9 13 5 7 1014.8 1015.0 4.2
12/06:00am 9.3 7.3 8.7 96 0.3 N 9 13 5 7 1014.5 1014.7 4.2
12/05:30am 9.3 6.5 8.7 96 0.3 NNE 13 15 7 8 1014.4 1014.6 3.6
12/05:00am 9.3 6.9 8.7 96 0.3 NNE 11 13 6 7 1014.3 1014.5 3.2
12/04:30am 9.3 6.5 8.7 96 0.3 NNE 13 15 7 8 1014.3 1014.5 2.0
12/04:00am 9.5 6.7 8.7 95 0.4 N 13 17 7 9 1014.4 1014.6 1.6
12/03:30am 9.7 7.0 8.9 95 0.4 N 13 17 7 9 1014.5 1014.7 1.6
12/03:00am 9.7 7.0 8.9 95 0.4 N 13 19 7 10 1014.6 1014.8 1.6
12/02:30am 9.7 7.0 8.9 95 0.4 N 13 19 7 10 1014.8 1015.0 1.6
12/02:00am 9.7 6.6 8.9 95 0.4 N 15 19 8 10 1014.9 1015.1 1.6
12/01:30am 9.5 6.0 8.7 95 0.4 N 17 22 9 12 1015.0 1015.2 1.6
12/01:00am 9.6 6.1 8.7 94 0.4 N 17 22 9 12 1015.3 1015.5 1.6
12/12:30am 9.7 6.2 8.6 93 0.5 NNE 17 20 9 11 1015.6 1015.7 1.4
12/12:00am 9.8 6.7 8.7 93 0.5 NNE 15 20 8 11 1016.0 1016.1 1.4
 
Date/Time
EST
Temp
°C
App
Temp
°C
Dew
Point
°C
Rel
Hum
%
Delta-T
°C
Wind Press
QNH
hPa
Press
MSL
hPa
Rain since
9am
mm
Dir  Spd
km/h
Gust
km/h
Spd
kts
Gust
kts
11/11:30pm 9.7 6.6 8.9 95 0.4 NNE 15 20 8 11 1016.0 1016.1 1.4
11/11:00pm 9.9 6.8 9.0 94 0.4 NNE 15 19 8 10 1016.3 1016.4 1.4
11/10:30pm 9.9 6.8 8.8 93 0.5 NNE 15 17 8 9 1016.6 1016.7 1.2
11/10:00pm 10.1 6.6 8.9 92 0.6 NNE 17 22 9 12 1016.7 1016.8 0.6
11/09:30pm 10.4 6.5 8.7 89 0.8 NNE 19 26 10 14 1016.7 1016.8 0.2
11/09:00pm 10.7 6.5 8.3 85 1.2 NNE 20 26 11 14 1016.6 1016.7 0.0
11/08:30pm 10.8 7.5 8.2 84 1.3 NNE 15 20 8 11 1016.6 1016.7 0.0
11/08:00pm 11.2 7.2 8.2 82 1.5 NNE 19 26 10 14 1016.5 1016.6 0.0
11/07:30pm 11.3 7.3 8.2 81 1.5 NNE 19 28 10 15 1016.2 1016.3 0.0
11/07:00pm 11.4 7.8 8.3 81 1.5 NNE 17 20 9 11 1016.0 1016.1 0.0
11/06:30pm 11.4 7.2 8.1 80 1.6 NNE 20 28 11 15 1015.9 1016.0 0.0
11/06:00pm 11.4 7.3 7.9 79 1.7 NE 19 24 10 13 1015.9 1016.0 0.0
11/05:30pm 11.6 7.9 7.9 78 1.8 NE 17 24 9 13 1015.9 1016.0 0.0
11/05:00pm 11.6 7.9 8.1 79 1.7 NNE 17 20 9 11 1016.1 1016.2 0.0
11/04:30pm 12.1 7.8 8.0 76 2.0 NNE 20 28 11 15 1016.2 1016.3 0.0
11/04:00pm 12.7 8.1 8.0 73 2.3 NNE 22 30 12 16 1016.4 1016.5 0.0
11/03:30pm 13.5 8.5 8.1 70 2.7 NNE 24 35 13 19 1016.2 1016.3 0.0
11/03:00pm 13.1 8.1 8.2 72 2.4 N 24 33 13 18 1016.5 1016.6 0.0
11/02:30pm 13.5 9.6 8.6 72 2.5 N 19 26 10 14 1016.7 1016.8 0.0
11/02:00pm 12.4 8.2 8.1 75 2.1 NNE 20 32 11 17 1016.8 1016.9 0.0
11/01:30pm 12.2 8.0 8.1 76 2.0 NNE 20 28 11 15 1017.2 1017.3 0.0
11/01:00pm 12.2 8.2 8.3 77 1.9 NNE 19 24 10 13 1017.8 1017.9 0.0
11/12:30pm 11.4 7.3 7.9 79 1.7 NNE 19 24 10 13 1018.2 1018.4 0.0
11/12:00pm 11.2 7.2 8.1 81 1.5 NNE 19 24 10 13 1019.0 1019.2 0.0
11/11:30am 10.7 6.6 7.9 83 1.4 NNE 19 22 10 12 1019.5 1019.7 0.0
11/11:00am 9.9 6.5 7.5 85 1.1 NNE 15 20 8 11 1020.4 1020.6 0.0
11/10:30am 9.2 5.2 6.8 85 1.1 NE 17 22 9 12 1020.2 1020.4 0.0
11/10:00am 8.3 4.6 6.4 88 0.9 NE 15 20 8 11 1020.4 1020.6 0.0
11/09:30am 8.0 4.2 6.0 87 0.9 NNE 15 20 8 11 1020.9 1021.1 0.0
11/09:00am 7.2 3.0 5.5 89 0.8 NE 17 20 9 11 1020.8 1021.0 0.2
11/08:30am 6.9 3.0 5.4 90 0.7 NNE 15 20 8 11 1021.0 1021.2 0.2
11/08:00am 6.6 1.8 4.9 89 0.7 NNE 19 24 10 13 1020.4 1020.6 0.2
11/07:30am 6.3 1.5 4.8 90 0.7 NE 19 24 10 13 1020.3 1020.5 0.2
11/07:00am 6.4 2.0 4.9 90 0.7 NNE 17 22 9 12 1020.6 1020.8 0.2
11/06:30am 6.1 2.1 4.7 91 0.6 NNE 15 17 8 9 1020.9 1021.1 0.2
11/06:00am 5.9 1.5 4.5 91 0.6 NE 17 19 9 10 1020.3 1020.5 0.2
11/05:30am 5.5 1.4 4.5 93 0.4 NNE 15 19 8 10 1020.6 1020.8 0.2
11/05:00am 5.6 1.9 4.6 93 0.4 NNE 13 17 7 9 1021.1 1021.3 0.2
11/04:30am 5.3 1.6 4.6 95 0.3 NE 13 15 7 8 1020.9 1021.1 0.2
11/04:00am 3.6 0.0 3.0 96 0.2 ENE 11 11 6 6 1021.3 1021.5 0.2
11/03:30am 3.5 0.7 2.9 96 0.2 NE 7 9 4 5 1021.4 1021.6 0.2
11/03:00am 4.0 0.8 3.3 95 0.3 ENE 9 13 5 7 1021.5 1021.7 0.2
11/02:30am 4.9 1.9 4.3 96 0.3 NNE 9 13 5 7 1021.6 1021.8 0.2
11/02:00am 4.2 0.7 3.5 95 0.3 ENE 11 13 6 7 1021.0 1021.2 0.2
11/01:30am 4.6 1.6 3.9 95 0.3 NE 9 11 5 6 1021.0 1021.2 0.2
11/01:00am 4.7 0.9 3.7 93 0.4 NE 13 15 7 8 1020.9 1021.1 0.2
11/12:30am 5.7 2.1 4.8 94 0.4 NE 13 15 7 8 1021.0 1021.2 0.2
11/12:00am 5.4 1.4 4.7 95 0.3 NE 15 17 8 9 1021.4 1021.6 0.0
 
Date/Time
EST
Temp
°C
App
Temp
°C
Dew
Point
°C
Rel
Hum
%
Delta-T
°C
Wind Press
QNH
hPa
Press
MSL
hPa
Rain since
9am
mm
Dir  Spd
km/h
Gust
km/h
Spd
kts
Gust
kts
10/11:30pm 4.5 0.7 4.1 97 0.2 ENE 13 15 7 8 1021.9 1022.1 0.0
10/11:00pm 4.1 0.3 3.7 97 0.2 NE 13 15 7 8 1022.5 1022.7 0.0
10/10:30pm 4.5 1.1 4.1 97 0.2 NE 11 11 6 6 1022.6 1022.8 0.0
10/10:00pm 4.4 1.4 4.0 97 0.2 NE 9 11 5 6 1022.2 1022.4 0.0
10/09:30pm 4.0 0.9 3.6 97 0.2 ENE 9 11 5 6 1022.2 1022.4 0.0
10/09:00pm 4.2 1.5 3.6 96 0.2 NE 7 9 4 5 1022.4 1022.6 0.0
10/08:30pm 4.2 0.7 3.6 96 0.2 NE 11 11 6 6 1022.5 1022.7 0.0
10/08:00pm 5.2 2.7 4.5 95 0.3 N 7 9 4 5 1022.8 1023.0 0.0
10/07:30pm 6.5 4.4 5.8 95 0.3 N 6 7 3 4 1023.0 1023.2 0.0
10/07:00pm 7.5 5.5 6.4 93 0.5 NNW 6 7 3 4 1023.0 1023.2 0.0
10/06:30pm 7.9 5.4 6.4 90 0.7 NNW 9 9 5 5 1022.8 1023.0 0.0
10/06:00pm 8.6 6.4 6.2 85 1.1 NW 7 7 4 4 1022.1 1022.3 0.0
10/05:30pm 10.2 8.3 6.9 80 1.6 NNW 6 7 3 4 1021.6 1021.8 0.0
10/05:00pm 11.0 9.2 7.1 77 1.9 NNW 6 7 3 4 1021.3 1021.5 0.0
10/04:30pm 12.7 10.5 7.8 72 2.4 NW 9 13 5 7 1021.5 1021.7 0.0
10/04:00pm 13.0 10.2 7.0 67 2.9 WNW 11 17 6 9 1021.5 1021.7 0.0
10/03:30pm 13.6 9.8 7.6 67 3.0 W 17 24 9 13 1021.4 1021.6 0.0
10/03:00pm 13.5 9.5 6.6 63 3.3 W 17 24 9 13 1021.3 1021.5 0.0
10/02:30pm 13.3 8.7 6.4 63 3.3 W 20 26 11 14 1021.3 1021.5 0.0
10/02:00pm 13.6 9.6 6.5 62 3.4 WNW 17 24 9 13 1021.3 1021.5 0.0
10/01:30pm 13.2 8.6 6.5 64 3.2 WNW 20 26 11 14 1021.5 1021.7 0.0
10/01:00pm 12.9 8.6 7.8 71 2.5 W 20 26 11 14 1021.9 1022.1 0.0
10/12:30pm 11.9 7.2 7.8 76 2.0 WSW 22 26 12 14 1022.2 1022.4 0.0
10/12:00pm 11.5 7.3 7.6 77 1.9 W 19 26 10 14 1022.5 1022.7 0.0
10/11:30am 11.1 7.4 7.8 80 1.6 W 17 24 9 13 1022.8 1023.0 0.0
10/11:00am 10.3 6.1 7.4 82 1.4 W 19 22 10 12 1023.1 1023.3 0.0
10/10:30am 9.5 5.2 6.9 84 1.2 W 19 24 10 13 1023.4 1023.6 0.0
10/10:00am 8.5 4.5 6.5 87 0.9 W 17 20 9 11 1023.2 1023.4 0.0
10/09:30am 7.3 3.5 5.6 89 0.8 W 15 20 8 11 1023.3 1023.5 0.0
10/09:00am 6.4 2.1 5.2 92 0.5 W 17 20 9 11 1023.2 1023.4 2.4
10/08:30am 5.4 1.7 4.7 95 0.3 WNW 13 17 7 9 1023.0 1023.2 2.4
10/08:00am 4.5 0.7 3.9 96 0.3 WNW 13 15 7 8 1022.7 1022.9 2.4
10/07:30am 4.0 0.1 3.4 96 0.2 NW 13 15 7 8 1022.5 1022.7 2.4
10/07:00am 4.3 0.8 3.7 96 0.2 WNW 11 15 6 8 1022.1 1022.3 2.4
10/06:30am 4.4 0.6 3.7 95 0.3 WNW 13 15 7 8 1021.9 1022.1 2.4
10/06:00am 5.0 1.3 4.3 95 0.3 WNW 13 15 7 8 1021.9 1022.1 2.4
10/05:30am 4.9 1.6 4.3 96 0.3 WNW 11 13 6 7 1021.7 1021.9 2.4
10/05:00am 4.7 1.3 4.1 96 0.3 WNW 11 13 6 7 1021.7 1021.9 2.4
10/04:30am 5.2 1.9 4.6 96 0.3 WNW 11 13 6 7 1021.6 1021.8 2.4
10/04:00am 5.2 2.3 4.6 96 0.3 W 9 11 5 6 1021.6 1021.8 2.4
10/03:30am 5.4 2.9 4.7 95 0.3 W 7 9 4 5 1021.8 1022.0 2.4
10/03:00am 6.1 3.9 5.2 94 0.4 WSW 6 7 3 4 1021.7 1021.9 2.4
10/02:30am 6.9 3.9 6.0 94 0.4 WSW 11 13 6 7 1021.9 1022.1 2.4
10/02:00am 6.8 3.4 5.9 94 0.4 WSW 13 15 7 8 1022.0 1022.2 2.4
10/01:30am 7.4 3.7 6.3 93 0.5 WSW 15 19 8 10 1022.1 1022.3 2.4
10/01:00am 7.9 3.9 6.7 92 0.6 WSW 17 20 9 11 1022.2 1022.4 2.4
10/12:30am 8.1 4.1 6.7 91 0.6 WSW 17 20 9 11 1022.2 1022.4 2.2
10/12:00am 8.6 4.7 7.2 91 0.7 WSW 17 20 9 11 1022.2 1022.4 2.2
 
Date/Time
EST
Temp
°C
App
Temp
°C
Dew
Point
°C
Rel
Hum
%
Delta-T
°C
Wind Press
QNH
hPa
Press
MSL
hPa
Rain since
9am
mm
Dir  Spd
km/h
Gust
km/h
Spd
kts
Gust
kts
09/11:30pm 8.4 5.7 7.2 92 0.6 WSW 11 15 6 8 1022.4 1022.6 2.2
09/11:00pm 9.4 6.5 8.0 91 0.7 SW 13 19 7 10 1022.5 1022.7 2.2
09/10:30pm 10.1 6.1 8.4 89 0.8 SW 19 22 10 12 1022.6 1022.8 2.2
09/10:00pm 10.8 6.8 9.1 89 0.8 SW 20 24 11 13 1022.5 1022.7 2.2
09/09:30pm 10.8 7.9 9.7 93 0.6 WSW 15 17 8 9 1022.3 1022.5 2.2
09/09:00pm 11.4 8.6 10.0 91 0.7 WSW 15 17 8 9 1022.2 1022.4 2.2
09/08:30pm 11.8 9.5 10.5 92 0.7 W 13 17 7 9 1022.2 1022.4 2.2

Other formats

Comma delimited format used in spreadsheet applications
http://www.bom.gov.au/fwo/IDN60801/IDN60801.95869.axf

JavaScript Object Notation format (JSON) in row-major order
http://www.bom.gov.au/fwo/IDN60801/IDN60801.95869.json

Data quality

Most of these data are generated automatically and are frequently updated. Quality checks on data are not normally performed. It is possible for incorrect values to appear. Refer to information at About Latest Weather Observations and please check the disclaimer before using these data.